sensor_id;sensor_type;location;lat;lon;timestamp;P1;durP1;ratioP1;P2;durP2;ratioP2
48042;SDS011;33988;47.992;8.820;2023-04-06T00:02:15;4.43;;;3.55;;
48042;SDS011;33988;47.992;8.820;2023-04-06T00:04:45;4.35;;;3.42;;
48042;SDS011;33988;47.992;8.820;2023-04-06T00:07:12;5.65;;;3.90;;
48042;SDS011;33988;47.992;8.820;2023-04-06T00:09:41;4.80;;;3.67;;
48042;SDS011;33988;47.992;8.820;2023-04-06T00:12:11;7.53;;;4.18;;
48042;SDS011;33988;47.992;8.820;2023-04-06T00:14:38;5.32;;;3.78;;
48042;SDS011;33988;47.992;8.820;2023-04-06T00:17:06;6.80;;;4.25;;
48042;SDS011;33988;47.992;8.820;2023-04-06T00:19:36;5.68;;;3.97;;
48042;SDS011;33988;47.992;8.820;2023-04-06T00:22:05;5.72;;;4.05;;
48042;SDS011;33988;47.992;8.820;2023-04-06T00:24:32;5.13;;;3.83;;
48042;SDS011;33988;47.992;8.820;2023-04-06T00:27:02;4.97;;;3.72;;
48042;SDS011;33988;47.992;8.820;2023-04-06T00:29:31;5.30;;;4.00;;
48042;SDS011;33988;47.992;8.820;2023-04-06T00:31:58;8.20;;;3.97;;
48042;SDS011;33988;47.992;8.820;2023-04-06T00:34:25;5.72;;;4.00;;
48042;SDS011;33988;47.992;8.820;2023-04-06T00:36:55;8.25;;;4.05;;
48042;SDS011;33988;47.992;8.820;2023-04-06T00:39:21;6.53;;;4.38;;
48042;SDS011;33988;47.992;8.820;2023-04-06T00:41:52;5.50;;;3.95;;
48042;SDS011;33988;47.992;8.820;2023-04-06T00:44:22;4.85;;;4.13;;
48042;SDS011;33988;47.992;8.820;2023-04-06T00:46:50;6.18;;;3.95;;
48042;SDS011;33988;47.992;8.820;2023-04-06T00:49:19;6.28;;;3.80;;
48042;SDS011;33988;47.992;8.820;2023-04-06T00:51:46;5.28;;;3.78;;
48042;SDS011;33988;47.992;8.820;2023-04-06T00:54:16;5.65;;;3.72;;
48042;SDS011;33988;47.992;8.820;2023-04-06T00:56:43;4.93;;;3.83;;
48042;SDS011;33988;47.992;8.820;2023-04-06T00:59:11;4.82;;;3.42;;
48042;SDS011;33988;47.992;8.820;2023-04-06T01:01:38;5.47;;;3.95;;
48042;SDS011;33988;47.992;8.820;2023-04-06T01:04:08;6.03;;;4.00;;
48042;SDS011;33988;47.992;8.820;2023-04-06T01:06:35;6.43;;;3.95;;
48042;SDS011;33988;47.992;8.820;2023-04-06T01:09:02;6.18;;;4.10;;
48042;SDS011;33988;47.992;8.820;2023-04-06T01:11:29;8.48;;;4.07;;
48042;SDS011;33988;47.992;8.820;2023-04-06T01:13:57;5.85;;;4.13;;
48042;SDS011;33988;47.992;8.820;2023-04-06T01:16:24;3.85;;;3.28;;
48042;SDS011;33988;47.992;8.820;2023-04-06T01:18:56;6.50;;;3.58;;
48042;SDS011;33988;47.992;8.820;2023-04-06T01:21:23;4.63;;;3.80;;
48042;SDS011;33988;47.992;8.820;2023-04-06T01:23:51;4.40;;;3.67;;
48042;SDS011;33988;47.992;8.820;2023-04-06T01:26:18;6.85;;;4.22;;
48042;SDS011;33988;47.992;8.820;2023-04-06T01:28:47;6.30;;;4.10;;
48042;SDS011;33988;47.992;8.820;2023-04-06T01:31:14;5.38;;;3.70;;
48042;SDS011;33988;47.992;8.820;2023-04-06T01:33:44;5.28;;;3.78;;
48042;SDS011;33988;47.992;8.820;2023-04-06T01:36:12;7.53;;;4.35;;
48042;SDS011;33988;47.992;8.820;2023-04-06T01:38:39;6.10;;;4.13;;
48042;SDS011;33988;47.992;8.820;2023-04-06T01:41:08;6.65;;;4.55;;
48042;SDS011;33988;47.992;8.820;2023-04-06T01:43:35;6.72;;;4.93;;
48042;SDS011;33988;47.992;8.820;2023-04-06T01:46:07;7.63;;;4.72;;
48042;SDS011;33988;47.992;8.820;2023-04-06T01:48:34;6.05;;;4.18;;
48042;SDS011;33988;47.992;8.820;2023-04-06T01:51:02;6.95;;;3.97;;
48042;SDS011;33988;47.992;8.820;2023-04-06T01:53:32;7.22;;;3.95;;
48042;SDS011;33988;47.992;8.820;2023-04-06T01:55:59;8.13;;;3.90;;
48042;SDS011;33988;47.992;8.820;2023-04-06T01:58:25;5.75;;;3.92;;
48042;SDS011;33988;47.992;8.820;2023-04-06T02:00:52;4.80;;;3.75;;
48042;SDS011;33988;47.992;8.820;2023-04-06T02:03:22;4.80;;;3.78;;
48042;SDS011;33988;47.992;8.820;2023-04-06T02:05:51;5.05;;;4.00;;
48042;SDS011;33988;47.992;8.820;2023-04-06T02:08:20;5.47;;;4.15;;
48042;SDS011;33988;47.992;8.820;2023-04-06T02:10:49;5.68;;;4.20;;
48042;SDS011;33988;47.992;8.820;2023-04-06T02:13:16;6.38;;;4.43;;
48042;SDS011;33988;47.992;8.820;2023-04-06T02:15:43;8.65;;;3.92;;
48042;SDS011;33988;47.992;8.820;2023-04-06T02:18:13;4.85;;;3.55;;
48042;SDS011;33988;47.992;8.820;2023-04-06T02:20:40;4.70;;;3.70;;
48042;SDS011;33988;47.992;8.820;2023-04-06T02:23:09;6.00;;;3.95;;
48042;SDS011;33988;47.992;8.820;2023-04-06T02:25:37;4.93;;;3.75;;
48042;SDS011;33988;47.992;8.820;2023-04-06T02:28:04;7.03;;;4.18;;
48042;SDS011;33988;47.992;8.820;2023-04-06T02:30:34;4.22;;;3.35;;
48042;SDS011;33988;47.992;8.820;2023-04-06T02:33:01;5.32;;;3.80;;
48042;SDS011;33988;47.992;8.820;2023-04-06T02:35:31;7.47;;;4.10;;
48042;SDS011;33988;47.992;8.820;2023-04-06T02:37:58;4.88;;;3.50;;
48042;SDS011;33988;47.992;8.820;2023-04-06T02:40:27;7.53;;;4.38;;
48042;SDS011;33988;47.992;8.820;2023-04-06T02:42:59;4.80;;;3.60;;
48042;SDS011;33988;47.992;8.820;2023-04-06T02:45:28;5.60;;;3.90;;
48042;SDS011;33988;47.992;8.820;2023-04-06T02:47:57;5.68;;;4.05;;
48042;SDS011;33988;47.992;8.820;2023-04-06T02:50:24;5.15;;;3.75;;
48042;SDS011;33988;47.992;8.820;2023-04-06T02:52:56;6.70;;;4.40;;
48042;SDS011;33988;47.992;8.820;2023-04-06T02:55:23;5.40;;;3.60;;
48042;SDS011;33988;47.992;8.820;2023-04-06T02:57:55;6.30;;;3.55;;
48042;SDS011;33988;47.992;8.820;2023-04-06T03:00:21;5.75;;;3.50;;
48042;SDS011;33988;47.992;8.820;2023-04-06T03:02:49;4.28;;;3.30;;
48042;SDS011;33988;47.992;8.820;2023-04-06T03:05:20;5.85;;;3.92;;
48042;SDS011;33988;47.992;8.820;2023-04-06T03:07:47;6.20;;;3.50;;
48042;SDS011;33988;47.992;8.820;2023-04-06T03:10:14;6.28;;;4.15;;
48042;SDS011;33988;47.992;8.820;2023-04-06T03:12:41;6.10;;;3.97;;
48042;SDS011;33988;47.992;8.820;2023-04-06T03:15:09;5.55;;;4.03;;
48042;SDS011;33988;47.992;8.820;2023-04-06T03:17:38;5.50;;;3.85;;
48042;SDS011;33988;47.992;8.820;2023-04-06T03:20:05;5.10;;;3.85;;
48042;SDS011;33988;47.992;8.820;2023-04-06T03:22:35;6.03;;;4.13;;
48042;SDS011;33988;47.992;8.820;2023-04-06T03:25:02;4.82;;;3.78;;
48042;SDS011;33988;47.992;8.820;2023-04-06T03:27:29;5.15;;;4.13;;
48042;SDS011;33988;47.992;8.820;2023-04-06T03:29:56;6.45;;;3.45;;
48042;SDS011;33988;47.992;8.820;2023-04-06T03:32:25;6.07;;;4.25;;
48042;SDS011;33988;47.992;8.820;2023-04-06T03:34:52;6.57;;;3.67;;
48042;SDS011;33988;47.992;8.820;2023-04-06T03:37:19;3.90;;;3.15;;
48042;SDS011;33988;47.992;8.820;2023-04-06T03:39:46;7.05;;;3.55;;
48042;SDS011;33988;47.992;8.820;2023-04-06T03:42:13;6.28;;;3.70;;
48042;SDS011;33988;47.992;8.820;2023-04-06T03:44:40;5.07;;;3.55;;
48042;SDS011;33988;47.992;8.820;2023-04-06T03:47:07;6.13;;;3.78;;
48042;SDS011;33988;47.992;8.820;2023-04-06T03:49:37;5.13;;;3.65;;
48042;SDS011;33988;47.992;8.820;2023-04-06T03:52:05;5.55;;;3.92;;
48042;SDS011;33988;47.992;8.820;2023-04-06T03:54:35;5.45;;;3.90;;
48042;SDS011;33988;47.992;8.820;2023-04-06T03:57:09;5.93;;;3.97;;
48042;SDS011;33988;47.992;8.820;2023-04-06T03:59:38;5.85;;;4.10;;
48042;SDS011;33988;47.992;8.820;2023-04-06T04:02:10;5.93;;;4.18;;
48042;SDS011;33988;47.992;8.820;2023-04-06T04:04:37;5.63;;;3.95;;
48042;SDS011;33988;47.992;8.820;2023-04-06T04:07:07;5.38;;;3.85;;
48042;SDS011;33988;47.992;8.820;2023-04-06T04:09:37;5.72;;;3.83;;
48042;SDS011;33988;47.992;8.820;2023-04-06T04:12:04;6.60;;;3.83;;
48042;SDS011;33988;47.992;8.820;2023-04-06T04:17:01;9.20;;;3.70;;
48042;SDS011;33988;47.992;8.820;2023-04-06T04:19:27;5.22;;;3.72;;
48042;SDS011;33988;47.992;8.820;2023-04-06T04:21:57;4.72;;;3.38;;
48042;SDS011;33988;47.992;8.820;2023-04-06T04:24:30;5.13;;;3.63;;
48042;SDS011;33988;47.992;8.820;2023-04-06T04:26:57;5.10;;;3.83;;
48042;SDS011;33988;47.992;8.820;2023-04-06T04:29:27;6.70;;;3.83;;
48042;SDS011;33988;47.992;8.820;2023-04-06T04:31:58;5.40;;;3.75;;
48042;SDS011;33988;47.992;8.820;2023-04-06T04:34:30;5.15;;;3.45;;
48042;SDS011;33988;47.992;8.820;2023-04-06T04:36:59;5.25;;;3.70;;
48042;SDS011;33988;47.992;8.820;2023-04-06T04:39:33;5.00;;;3.70;;
48042;SDS011;33988;47.992;8.820;2023-04-06T04:42:02;5.18;;;3.50;;
48042;SDS011;33988;47.992;8.820;2023-04-06T04:44:29;4.10;;;3.33;;
48042;SDS011;33988;47.992;8.820;2023-04-06T04:46:58;5.25;;;3.70;;
48042;SDS011;33988;47.992;8.820;2023-04-06T04:49:25;4.82;;;3.83;;
48042;SDS011;33988;47.992;8.820;2023-04-06T04:51:54;7.22;;;3.83;;
48042;SDS011;33988;47.992;8.820;2023-04-06T04:54:24;5.03;;;3.65;;
48042;SDS011;33988;47.992;8.820;2023-04-06T04:56:54;4.85;;;3.63;;
48042;SDS011;33988;47.992;8.820;2023-04-06T05:01:53;4.18;;;2.72;;
48042;SDS011;33988;47.992;8.820;2023-04-06T05:04:24;5.68;;;3.92;;
48042;SDS011;33988;47.992;8.820;2023-04-06T05:07:07;4.97;;;3.65;;
48042;SDS011;33988;47.992;8.820;2023-04-06T05:09:35;5.93;;;3.55;;
48042;SDS011;33988;47.992;8.820;2023-04-06T05:12:02;5.80;;;3.80;;
48042;SDS011;33988;47.992;8.820;2023-04-06T05:14:29;5.03;;;3.60;;
48042;SDS011;33988;47.992;8.820;2023-04-06T05:17:02;4.85;;;3.58;;
48042;SDS011;33988;47.992;8.820;2023-04-06T05:19:29;5.88;;;3.97;;
48042;SDS011;33988;47.992;8.820;2023-04-06T05:21:56;5.63;;;3.90;;
48042;SDS011;33988;47.992;8.820;2023-04-06T05:24:23;7.60;;;3.80;;
48042;SDS011;33988;47.992;8.820;2023-04-06T05:26:54;5.55;;;3.85;;
48042;SDS011;33988;47.992;8.820;2023-04-06T05:29:21;4.78;;;3.53;;
48042;SDS011;33988;47.992;8.820;2023-04-06T05:31:53;5.68;;;4.13;;
48042;SDS011;33988;47.992;8.820;2023-04-06T05:34:20;6.05;;;4.05;;
48042;SDS011;33988;47.992;8.820;2023-04-06T05:36:49;5.57;;;4.13;;
48042;SDS011;33988;47.992;8.820;2023-04-06T05:39:16;7.13;;;4.10;;
48042;SDS011;33988;47.992;8.820;2023-04-06T05:41:43;6.72;;;4.25;;
48042;SDS011;33988;47.992;8.820;2023-04-06T05:44:10;5.43;;;4.13;;
48042;SDS011;33988;47.992;8.820;2023-04-06T05:46:40;6.15;;;4.30;;
48042;SDS011;33988;47.992;8.820;2023-04-06T05:49:07;4.90;;;3.80;;
48042;SDS011;33988;47.992;8.820;2023-04-06T05:51:34;5.70;;;3.92;;
48042;SDS011;33988;47.992;8.820;2023-04-06T05:54:01;6.10;;;4.15;;
48042;SDS011;33988;47.992;8.820;2023-04-06T05:56:28;6.60;;;3.85;;
48042;SDS011;33988;47.992;8.820;2023-04-06T05:58:58;6.82;;;4.15;;
48042;SDS011;33988;47.992;8.820;2023-04-06T06:01:25;5.35;;;4.07;;
48042;SDS011;33988;47.992;8.820;2023-04-06T06:03:56;8.05;;;3.90;;
48042;SDS011;33988;47.992;8.820;2023-04-06T06:06:23;6.30;;;4.28;;
48042;SDS011;33988;47.992;8.820;2023-04-06T06:08:51;5.82;;;4.05;;
48042;SDS011;33988;47.992;8.820;2023-04-06T06:11:18;7.70;;;4.28;;
48042;SDS011;33988;47.992;8.820;2023-04-06T06:13:47;5.80;;;3.92;;
48042;SDS011;33988;47.992;8.820;2023-04-06T06:16:19;6.15;;;4.25;;
48042;SDS011;33988;47.992;8.820;2023-04-06T06:18:47;7.60;;;4.57;;
48042;SDS011;33988;47.992;8.820;2023-04-06T06:21:14;6.68;;;4.63;;
48042;SDS011;33988;47.992;8.820;2023-04-06T06:23:45;8.32;;;4.45;;
48042;SDS011;33988;47.992;8.820;2023-04-06T06:26:17;11.02;;;4.65;;
48042;SDS011;33988;47.992;8.820;2023-04-06T06:28:44;10.60;;;5.38;;
48042;SDS011;33988;47.992;8.820;2023-04-06T06:31:14;8.85;;;5.63;;
48042;SDS011;33988;47.992;8.820;2023-04-06T06:33:46;8.13;;;5.20;;
48042;SDS011;33988;47.992;8.820;2023-04-06T06:36:19;9.43;;;5.90;;
48042;SDS011;33988;47.992;8.820;2023-04-06T06:38:46;6.82;;;4.78;;
48042;SDS011;33988;47.992;8.820;2023-04-06T06:41:13;6.47;;;4.68;;
48042;SDS011;33988;47.992;8.820;2023-04-06T06:43:43;7.65;;;5.45;;
48042;SDS011;33988;47.992;8.820;2023-04-06T06:46:09;7.00;;;5.22;;
48042;SDS011;33988;47.992;8.820;2023-04-06T06:48:39;19.55;;;6.38;;
48042;SDS011;33988;47.992;8.820;2023-04-06T06:51:06;8.80;;;5.15;;
48042;SDS011;33988;47.992;8.820;2023-04-06T06:56:06;7.07;;;4.85;;
48042;SDS011;33988;47.992;8.820;2023-04-06T06:58:33;8.45;;;5.82;;
48042;SDS011;33988;47.992;8.820;2023-04-06T07:01:00;9.63;;;6.07;;
48042;SDS011;33988;47.992;8.820;2023-04-06T07:03:33;8.25;;;5.78;;
48042;SDS011;33988;47.992;8.820;2023-04-06T07:06:00;9.45;;;5.82;;
48042;SDS011;33988;47.992;8.820;2023-04-06T07:08:27;10.52;;;5.57;;
48042;SDS011;33988;47.992;8.820;2023-04-06T07:10:54;8.50;;;5.80;;
48042;SDS011;33988;47.992;8.820;2023-04-06T07:13:24;7.30;;;5.53;;
48042;SDS011;33988;47.992;8.820;2023-04-06T07:15:55;7.18;;;5.35;;
48042;SDS011;33988;47.992;8.820;2023-04-06T07:18:30;6.28;;;5.50;;
48042;SDS011;33988;47.992;8.820;2023-04-06T07:21:03;6.40;;;5.10;;
48042;SDS011;33988;47.992;8.820;2023-04-06T07:23:33;7.32;;;5.18;;
48042;SDS011;33988;47.992;8.820;2023-04-06T07:26:03;5.55;;;4.30;;
48042;SDS011;33988;47.992;8.820;2023-04-06T07:28:30;5.50;;;4.63;;
48042;SDS011;33988;47.992;8.820;2023-04-06T07:30:57;6.50;;;4.85;;
48042;SDS011;33988;47.992;8.820;2023-04-06T07:33:29;5.30;;;4.22;;
48042;SDS011;33988;47.992;8.820;2023-04-06T07:35:56;5.22;;;4.40;;
48042;SDS011;33988;47.992;8.820;2023-04-06T07:38:25;6.03;;;4.75;;
48042;SDS011;33988;47.992;8.820;2023-04-06T07:40:52;6.13;;;5.13;;
48042;SDS011;33988;47.992;8.820;2023-04-06T07:43:21;7.03;;;4.90;;
48042;SDS011;33988;47.992;8.820;2023-04-06T07:45:53;6.40;;;4.85;;
48042;SDS011;33988;47.992;8.820;2023-04-06T07:48:23;6.15;;;5.32;;
48042;SDS011;33988;47.992;8.820;2023-04-06T07:50:59;5.50;;;4.47;;
48042;SDS011;33988;47.992;8.820;2023-04-06T07:53:28;6.45;;;4.40;;
48042;SDS011;33988;47.992;8.820;2023-04-06T07:55:58;6.45;;;5.05;;
48042;SDS011;33988;47.992;8.820;2023-04-06T07:58:30;6.07;;;4.85;;
48042;SDS011;33988;47.992;8.820;2023-04-06T08:01:01;7.50;;;5.18;;
48042;SDS011;33988;47.992;8.820;2023-04-06T08:03:33;7.70;;;5.65;;
48042;SDS011;33988;47.992;8.820;2023-04-06T08:06:08;6.72;;;5.57;;
48042;SDS011;33988;47.992;8.820;2023-04-06T08:08:40;7.47;;;4.93;;
48042;SDS011;33988;47.992;8.820;2023-04-06T08:11:08;6.50;;;5.22;;
48042;SDS011;33988;47.992;8.820;2023-04-06T08:13:35;10.05;;;5.88;;
48042;SDS011;33988;47.992;8.820;2023-04-06T08:16:04;7.80;;;5.30;;
48042;SDS011;33988;47.992;8.820;2023-04-06T08:18:34;6.47;;;5.40;;
48042;SDS011;33988;47.992;8.820;2023-04-06T08:21:03;6.70;;;5.57;;
48042;SDS011;33988;47.992;8.820;2023-04-06T08:23:30;10.60;;;6.00;;
48042;SDS011;33988;47.992;8.820;2023-04-06T08:26:00;12.18;;;5.63;;
48042;SDS011;33988;47.992;8.820;2023-04-06T08:28:29;8.75;;;5.32;;
48042;SDS011;33988;47.992;8.820;2023-04-06T08:30:56;7.63;;;5.50;;
48042;SDS011;33988;47.992;8.820;2023-04-06T08:33:26;6.07;;;4.70;;
48042;SDS011;33988;47.992;8.820;2023-04-06T08:35:56;7.00;;;4.22;;
48042;SDS011;33988;47.992;8.820;2023-04-06T08:38:26;7.97;;;4.70;;
48042;SDS011;33988;47.992;8.820;2023-04-06T08:40:53;6.47;;;4.50;;
48042;SDS011;33988;47.992;8.820;2023-04-06T08:43:22;6.70;;;4.22;;
48042;SDS011;33988;47.992;8.820;2023-04-06T08:45:51;5.80;;;3.97;;
48042;SDS011;33988;47.992;8.820;2023-04-06T08:48:18;5.18;;;4.03;;
48042;SDS011;33988;47.992;8.820;2023-04-06T08:50:45;4.50;;;4.10;;
48042;SDS011;33988;47.992;8.820;2023-04-06T08:53:15;4.45;;;3.72;;
48042;SDS011;33988;47.992;8.820;2023-04-06T08:55:43;5.28;;;4.18;;
48042;SDS011;33988;47.992;8.820;2023-04-06T08:58:10;4.35;;;3.60;;
48042;SDS011;33988;47.992;8.820;2023-04-06T09:01:00;6.03;;;3.80;;
48042;SDS011;33988;47.992;8.820;2023-04-06T09:03:39;5.25;;;3.33;;
48042;SDS011;33988;47.992;8.820;2023-04-06T09:06:07;4.70;;;3.55;;
48042;SDS011;33988;47.992;8.820;2023-04-06T09:08:39;5.85;;;4.40;;
48042;SDS011;33988;47.992;8.820;2023-04-06T09:11:07;5.93;;;3.95;;
48042;SDS011;33988;47.992;8.820;2023-04-06T09:13:44;4.95;;;3.80;;
48042;SDS011;33988;47.992;8.820;2023-04-06T09:16:19;4.63;;;3.42;;
48042;SDS011;33988;47.992;8.820;2023-04-06T09:18:47;4.32;;;3.30;;
48042;SDS011;33988;47.992;8.820;2023-04-06T09:21:18;4.82;;;3.22;;
48042;SDS011;33988;47.992;8.820;2023-04-06T09:24:00;3.83;;;3.40;;
48042;SDS011;33988;47.992;8.820;2023-04-06T09:26:32;6.20;;;3.67;;
48042;SDS011;33988;47.992;8.820;2023-04-06T09:29:23;4.32;;;3.55;;
48042;SDS011;33988;47.992;8.820;2023-04-06T09:32:01;4.07;;;3.17;;
48042;SDS011;33988;47.992;8.820;2023-04-06T09:34:35;5.13;;;3.58;;
48042;SDS011;33988;47.992;8.820;2023-04-06T09:37:14;4.10;;;3.25;;
48042;SDS011;33988;47.992;8.820;2023-04-06T09:39:41;3.38;;;3.05;;
48042;SDS011;33988;47.992;8.820;2023-04-06T09:42:22;3.88;;;3.22;;
48042;SDS011;33988;47.992;8.820;2023-04-06T09:47:21;3.97;;;2.75;;
48042;SDS011;33988;47.992;8.820;2023-04-06T09:49:55;4.35;;;3.40;;
48042;SDS011;33988;47.992;8.820;2023-04-06T09:52:37;5.55;;;3.50;;
48042;SDS011;33988;47.992;8.820;2023-04-06T09:55:11;4.25;;;3.78;;
48042;SDS011;33988;47.992;8.820;2023-04-06T10:00:26;4.28;;;3.53;;
48042;SDS011;33988;47.992;8.820;2023-04-06T10:05:46;3.60;;;2.75;;
48042;SDS011;33988;47.992;8.820;2023-04-06T10:08:18;4.32;;;3.40;;
48042;SDS011;33988;47.992;8.820;2023-04-06T10:10:47;3.50;;;2.85;;
48042;SDS011;33988;47.992;8.820;2023-04-06T10:13:17;4.03;;;3.38;;
48042;SDS011;33988;47.992;8.820;2023-04-06T10:15:48;4.82;;;3.42;;
48042;SDS011;33988;47.992;8.820;2023-04-06T10:18:20;3.90;;;3.17;;
48042;SDS011;33988;47.992;8.820;2023-04-06T10:23:26;3.80;;;3.35;;
48042;SDS011;33988;47.992;8.820;2023-04-06T10:26:01;5.05;;;3.60;;
48042;SDS011;33988;47.992;8.820;2023-04-06T10:28:35;3.90;;;2.97;;
48042;SDS011;33988;47.992;8.820;2023-04-06T10:31:05;3.33;;;3.03;;
48042;SDS011;33988;47.992;8.820;2023-04-06T10:33:35;4.40;;;3.45;;
48042;SDS011;33988;47.992;8.820;2023-04-06T10:36:22;4.88;;;3.42;;
48042;SDS011;33988;47.992;8.820;2023-04-06T10:38:59;4.35;;;3.03;;
48042;SDS011;33988;47.992;8.820;2023-04-06T10:41:33;4.18;;;3.15;;
48042;SDS011;33988;47.992;8.820;2023-04-06T10:44:01;4.97;;;3.33;;
48042;SDS011;33988;47.992;8.820;2023-04-06T10:46:29;4.57;;;3.70;;
48042;SDS011;33988;47.992;8.820;2023-04-06T10:49:08;3.35;;;3.05;;
48042;SDS011;33988;47.992;8.820;2023-04-06T10:51:40;3.60;;;3.30;;
48042;SDS011;33988;47.992;8.820;2023-04-06T10:54:09;3.85;;;3.33;;
48042;SDS011;33988;47.992;8.820;2023-04-06T10:56:38;3.83;;;3.45;;
48042;SDS011;33988;47.992;8.820;2023-04-06T10:59:06;5.70;;;3.38;;
48042;SDS011;33988;47.992;8.820;2023-04-06T11:01:33;6.85;;;3.50;;
48042;SDS011;33988;47.992;8.820;2023-04-06T11:04:03;4.22;;;3.42;;
48042;SDS011;33988;47.992;8.820;2023-04-06T11:06:31;3.58;;;3.05;;
48042;SDS011;33988;47.992;8.820;2023-04-06T11:09:02;3.17;;;2.63;;
48042;SDS011;33988;47.992;8.820;2023-04-06T11:11:29;3.83;;;3.03;;
48042;SDS011;33988;47.992;8.820;2023-04-06T11:14:01;3.65;;;3.22;;
48042;SDS011;33988;47.992;8.820;2023-04-06T11:16:35;4.57;;;3.78;;
48042;SDS011;33988;47.992;8.820;2023-04-06T11:19:05;4.50;;;3.85;;
48042;SDS011;33988;47.992;8.820;2023-04-06T11:24:19;4.53;;;3.00;;
48042;SDS011;33988;47.992;8.820;2023-04-06T11:29:25;3.00;;;2.70;;
48042;SDS011;33988;47.992;8.820;2023-04-06T11:31:58;3.22;;;2.92;;
48042;SDS011;33988;47.992;8.820;2023-04-06T11:34:29;4.85;;;3.42;;
48042;SDS011;33988;47.992;8.820;2023-04-06T11:37:09;3.20;;;2.90;;
48042;SDS011;33988;47.992;8.820;2023-04-06T11:39:48;3.63;;;3.22;;
48042;SDS011;33988;47.992;8.820;2023-04-06T11:44:56;3.28;;;2.67;;
48042;SDS011;33988;47.992;8.820;2023-04-06T11:47:31;4.57;;;2.67;;
48042;SDS011;33988;47.992;8.820;2023-04-06T11:52:37;3.60;;;2.63;;
48042;SDS011;33988;47.992;8.820;2023-04-06T11:57:42;3.72;;;3.08;;
48042;SDS011;33988;47.992;8.820;2023-04-06T12:00:16;3.78;;;3.03;;
48042;SDS011;33988;47.992;8.820;2023-04-06T12:02:46;3.45;;;2.85;;
48042;SDS011;33988;47.992;8.820;2023-04-06T12:05:17;3.25;;;2.88;;
48042;SDS011;33988;47.992;8.820;2023-04-06T12:07:44;3.05;;;2.75;;
48042;SDS011;33988;47.992;8.820;2023-04-06T12:10:14;3.35;;;2.63;;
48042;SDS011;33988;47.992;8.820;2023-04-06T12:12:43;3.65;;;3.10;;
48042;SDS011;33988;47.992;8.820;2023-04-06T12:15:14;3.63;;;3.22;;
48042;SDS011;33988;47.992;8.820;2023-04-06T12:17:44;3.38;;;3.08;;
48042;SDS011;33988;47.992;8.820;2023-04-06T12:20:18;3.70;;;2.92;;
48042;SDS011;33988;47.992;8.820;2023-04-06T12:22:54;3.97;;;2.85;;
48042;SDS011;33988;47.992;8.820;2023-04-06T12:25:22;3.25;;;2.70;;
48042;SDS011;33988;47.992;8.820;2023-04-06T12:27:51;3.47;;;3.17;;
48042;SDS011;33988;47.992;8.820;2023-04-06T12:30:23;4.35;;;2.92;;
48042;SDS011;33988;47.992;8.820;2023-04-06T12:35:22;3.15;;;2.53;;
48042;SDS011;33988;47.992;8.820;2023-04-06T12:37:49;3.47;;;2.60;;
48042;SDS011;33988;47.992;8.820;2023-04-06T12:40:18;5.25;;;3.13;;
48042;SDS011;33988;47.992;8.820;2023-04-06T12:42:48;2.78;;;2.53;;
48042;SDS011;33988;47.992;8.820;2023-04-06T12:45:18;3.00;;;2.65;;
48042;SDS011;33988;47.992;8.820;2023-04-06T12:47:45;4.13;;;3.25;;
48042;SDS011;33988;47.992;8.820;2023-04-06T12:50:17;4.80;;;2.88;;
48042;SDS011;33988;47.992;8.820;2023-04-06T12:52:44;5.03;;;3.55;;
48042;SDS011;33988;47.992;8.820;2023-04-06T12:55:16;4.25;;;2.97;;
48042;SDS011;33988;47.992;8.820;2023-04-06T13:00:19;4.03;;;2.97;;
48042;SDS011;33988;47.992;8.820;2023-04-06T13:02:54;3.30;;;3.00;;
48042;SDS011;33988;47.992;8.820;2023-04-06T13:05:21;3.42;;;3.05;;
48042;SDS011;33988;47.992;8.820;2023-04-06T13:07:48;16.20;;;3.95;;
48042;SDS011;33988;47.992;8.820;2023-04-06T13:10:17;3.58;;;2.78;;
48042;SDS011;33988;47.992;8.820;2023-04-06T13:12:44;3.47;;;3.03;;
48042;SDS011;33988;47.992;8.820;2023-04-06T13:15:14;4.68;;;3.55;;
48042;SDS011;33988;47.992;8.820;2023-04-06T13:17:42;3.55;;;2.97;;
48042;SDS011;33988;47.992;8.820;2023-04-06T13:20:09;3.33;;;2.90;;
48042;SDS011;33988;47.992;8.820;2023-04-06T13:22:39;3.03;;;2.38;;
48042;SDS011;33988;47.992;8.820;2023-04-06T13:25:08;3.13;;;2.65;;
48042;SDS011;33988;47.992;8.820;2023-04-06T13:27:35;3.90;;;2.92;;
48042;SDS011;33988;47.992;8.820;2023-04-06T13:30:07;3.28;;;2.78;;
48042;SDS011;33988;47.992;8.820;2023-04-06T13:32:35;3.83;;;2.70;;
48042;SDS011;33988;47.992;8.820;2023-04-06T13:35:04;3.13;;;2.83;;
48042;SDS011;33988;47.992;8.820;2023-04-06T13:37:37;4.07;;;2.95;;
48042;SDS011;33988;47.992;8.820;2023-04-06T13:40:07;2.97;;;2.67;;
48042;SDS011;33988;47.992;8.820;2023-04-06T13:42:39;2.72;;;2.47;;
48042;SDS011;33988;47.992;8.820;2023-04-06T13:45:10;2.95;;;2.67;;
48042;SDS011;33988;47.992;8.820;2023-04-06T13:47:39;3.60;;;2.97;;
48042;SDS011;33988;47.992;8.820;2023-04-06T13:50:09;3.50;;;2.55;;
48042;SDS011;33988;47.992;8.820;2023-04-06T13:52:38;3.88;;;3.15;;
48042;SDS011;33988;47.992;8.820;2023-04-06T13:55:10;4.97;;;3.50;;
48042;SDS011;33988;47.992;8.820;2023-04-06T13:57:41;4.70;;;2.70;;
48042;SDS011;33988;47.992;8.820;2023-04-06T14:00:08;3.90;;;2.85;;
48042;SDS011;33988;47.992;8.820;2023-04-06T14:02:38;3.05;;;2.72;;
48042;SDS011;33988;47.992;8.820;2023-04-06T14:05:10;3.97;;;3.28;;
48042;SDS011;33988;47.992;8.820;2023-04-06T14:07:43;3.85;;;3.17;;
48042;SDS011;33988;47.992;8.820;2023-04-06T14:10:10;3.20;;;2.90;;
48042;SDS011;33988;47.992;8.820;2023-04-06T14:12:43;3.35;;;2.78;;
48042;SDS011;33988;47.992;8.820;2023-04-06T14:15:11;4.13;;;3.13;;
48042;SDS011;33988;47.992;8.820;2023-04-06T14:17:41;4.18;;;2.70;;
48042;SDS011;33988;47.992;8.820;2023-04-06T14:20:13;3.28;;;2.70;;
48042;SDS011;33988;47.992;8.820;2023-04-06T14:22:45;2.72;;;2.45;;
48042;SDS011;33988;47.992;8.820;2023-04-06T14:25:13;3.92;;;3.08;;
48042;SDS011;33988;47.992;8.820;2023-04-06T14:27:43;3.63;;;2.95;;
48042;SDS011;33988;47.992;8.820;2023-04-06T14:30:10;3.83;;;3.03;;
48042;SDS011;33988;47.992;8.820;2023-04-06T14:32:38;4.50;;;3.15;;
48042;SDS011;33988;47.992;8.820;2023-04-06T14:35:10;5.60;;;3.13;;
48042;SDS011;33988;47.992;8.820;2023-04-06T14:37:37;3.33;;;2.70;;
48042;SDS011;33988;47.992;8.820;2023-04-06T14:40:04;4.75;;;3.13;;
48042;SDS011;33988;47.992;8.820;2023-04-06T14:42:37;3.92;;;2.85;;
48042;SDS011;33988;47.992;8.820;2023-04-06T14:45:04;3.22;;;2.67;;
48042;SDS011;33988;47.992;8.820;2023-04-06T14:47:34;3.35;;;2.72;;
48042;SDS011;33988;47.992;8.820;2023-04-06T14:50:01;3.55;;;2.90;;
48042;SDS011;33988;47.992;8.820;2023-04-06T14:52:28;3.53;;;2.70;;
48042;SDS011;33988;47.992;8.820;2023-04-06T14:55:00;3.80;;;2.88;;
48042;SDS011;33988;47.992;8.820;2023-04-06T14:57:29;3.67;;;2.90;;
48042;SDS011;33988;47.992;8.820;2023-04-06T15:00:00;4.72;;;2.85;;
48042;SDS011;33988;47.992;8.820;2023-04-06T15:02:29;3.28;;;2.85;;
48042;SDS011;33988;47.992;8.820;2023-04-06T15:04:59;3.85;;;3.03;;
48042;SDS011;33988;47.992;8.820;2023-04-06T15:07:26;3.00;;;2.67;;
48042;SDS011;33988;47.992;8.820;2023-04-06T15:09:55;2.92;;;2.63;;
48042;SDS011;33988;47.992;8.820;2023-04-06T15:12:22;3.92;;;2.78;;
48042;SDS011;33988;47.992;8.820;2023-04-06T15:14:49;3.33;;;2.70;;
48042;SDS011;33988;47.992;8.820;2023-04-06T15:17:16;4.00;;;2.78;;
48042;SDS011;33988;47.992;8.820;2023-04-06T15:19:43;4.68;;;2.58;;
48042;SDS011;33988;47.992;8.820;2023-04-06T15:22:10;5.15;;;2.50;;
48042;SDS011;33988;47.992;8.820;2023-04-06T15:24:39;5.50;;;2.65;;
48042;SDS011;33988;47.992;8.820;2023-04-06T15:27:06;3.72;;;2.75;;
48042;SDS011;33988;47.992;8.820;2023-04-06T15:29:33;3.38;;;2.58;;
48042;SDS011;33988;47.992;8.820;2023-04-06T15:32:00;4.47;;;2.85;;
48042;SDS011;33988;47.992;8.820;2023-04-06T15:34:30;3.55;;;2.58;;
48042;SDS011;33988;47.992;8.820;2023-04-06T15:37:01;2.72;;;2.40;;
48042;SDS011;33988;47.992;8.820;2023-04-06T15:39:31;3.33;;;2.50;;